Nearby METAR Reports

 

KJOT - Joliet, Illinois, USA
Distance from station: SSW 3mi, 6km
Updated: 01/20/2018 12:55am
Clear
Clear
 Wind from SSW
Wind: SSW 7 mph , 11 km/h
Temperature: 37°F , 3°C
Wind Chill: 32°F , 0°C
Dew Point: 30°F , -1°C
Humidity: 75%
Barometer: 29.83 inHg , 1010.2 hPa
Clouds: Clear
Visibility: 10 miles , 16 km
2018/01/20 06:55 KJOT 200655Z AUTO 21006KT 10SM CLR 03/M01 A2983 RMK AO2 T00301014
KLOT - Romeoville/Chi, Illinois, USA
Distance from station: NE 4mi, 6km
Updated: 01/20/2018 12:55am
Clear
Clear
 Wind from SW
Wind: SW 13 mph , 20 km/h
Temperature: 36°F , 2°C
Wind Chill: 27°F , -3°C
Dew Point: 28°F , -2°C
Humidity: 75%
Barometer: 29.82 inHg , 1009.8 hPa
Clouds: Clear
Visibility: 10 miles , 16 km
2018/01/20 06:55 KLOT 200655Z AUTO 22011KT 10SM CLR 02/M02 A2982 RMK AO2 T00151019
 
KC09 - Morris-Washburn, Illinois, USA
Distance from station: SW 16mi, 26km
Updated: 01/20/2018 12:55am
Clear
Clear
 Wind from SSW
Wind: SSW 10 mph , 17 km/h
Temperature: 36°F , 2°C
Wind Chill: 29°F , -2°C
Dew Point: 28°F , -2°C
Humidity: 75%
Barometer: 29.83 inHg , 1010.2 hPa
Clouds: Clear
Visibility: 10 miles , 16 km
2018/01/20 06:55 KC09 200655Z AUTO 21009KT 10SM CLR 02/M02 A2983 RMK AO2 T00161017
KARR - Chicago/Aurora, Illinois, USA
Distance from station: NW 22mi, 35km
Updated: 01/20/2018 12:52am
Clear
Clear
 Wind from SSW
Wind: SSW 8 mph , 13 km/h
Temperature: 34°F , 1°C
Wind Chill: 27°F , -3°C
Dew Point: 28°F , -2°C
Humidity: 81%
Barometer: 29.81 inHg , 1009.5 hPa
Clouds: Clear
Visibility: 10 miles , 16 km
2018/01/20 06:52 KARR 200652Z AUTO 20007KT 10SM CLR 01/M02 A2981 RMK AO2 SLP099 T00111022
 
KDPA - Chicago/Dupage, Illinois, USA
Distance from station: NNW 25mi, 40km
Updated: 01/20/2018 12:52am
Clear
Clear
 Wind from SSW
Wind: SSW 14 mph , 22 km/h
Temperature: 36°F , 2°C
Wind Chill: 27°F , -3°C
Dew Point: 28°F , -2°C
Humidity: 75%
Barometer: 29.79 inHg , 1008.8 hPa
Clouds: Clear
Visibility: 9 miles , 14 km
2018/01/20 06:52 KDPA 200652Z 21012KT 9SM CLR 02/M02 A2979 RMK AO2 SLP093 T00171022
KMDW - Chicago, Illinois, USA
Distance from station: NE 26mi, 42km
Updated: 01/20/2018 12:53am
Overcast
Overcast
 Wind from SW
Wind: SW 15 mph , 24 km/h
Temperature: 37°F , 3°C
Wind Chill: 28°F , -2°C
Dew Point: 28°F , -2°C
Humidity: 70%
Barometer: 29.80 inHg , 1009.1 hPa
Clouds: Overcast
Visibility: 10 miles , 16 km
Cloud details: Partly cloudy 25000 ft
Overcast 30000 ft
2018/01/20 06:53 KMDW 200653Z 22013KT 10SM SCT250 OVC300 03/M02 A2980 RMK AO2 SLP098 T00331022
 
KORD - Chicago O'hare, Illinois, USA
Distance from station: NNE 31mi, 50km
Updated: 01/20/2018 12:51am
Few Clouds
Few Clouds
 Wind from SW
Wind: SW 14 mph , 22 km/h
Temperature: 37°F , 3°C
Wind Chill: 28°F , -2°C
Dew Point: 27°F , -3°C
Humidity: 65%
Barometer: 29.78 inHg , 1008.5 hPa
Clouds: Few Clouds
Visibility: 10 miles , 16 km
Cloud details: Few Clouds 25000 ft
2018/01/20 06:51 KORD 200651Z 23012KT 10SM FEW250 03/M03 A2978 RMK AO2 SLP089 T00331028
KIGQ - Chicago/Lansing, Illinois, USA
Distance from station: E 32mi, 52km
Updated: 01/20/2018 12:55am
Clear
Clear
 Wind from SW
Wind: SW 13 mph , 20 km/h
Temperature: 34°F , 1°C
Wind Chill: 25°F , -4°C
Dew Point: 30°F , -1°C
Humidity: 87%
Barometer: 29.83 inHg , 1010.2 hPa
Clouds: Clear
Visibility: 10 miles , 16 km
2018/01/20 06:55 KIGQ 200655Z AUTO 22011KT 10SM CLR 01/M01 A2983 RMK AO2 T00141015
 
KDKB - De Kalb, Illinois, USA
Distance from station: NW 38mi, 61km
Updated: 01/20/2018 12:55am
Clear
Clear
 Wind from SW
Wind: SW 14 mph , 22 km/h
Temperature: 37°F , 3°C
Wind Chill: 28°F , -2°C
Dew Point: 28°F , -2°C
Humidity: 70%
Barometer: 29.79 inHg , 1008.8 hPa
Clouds: Clear
Visibility: 10 miles , 16 km
2018/01/20 06:55 KDKB 200655Z AUTO 23012KT 10SM CLR 03/M02 A2979 RMK AO2 T00301016
KIKK - Kankakee, Illinois, USA
Distance from station: SSE 38mi, 61km
Updated: 01/20/2018 12:55am
Clear
Clear
 Wind from SW
Wind: SW 14 mph , 22 km/h, Gust: 18 mph , 30 km/h
Barometer: 29.87 inHg , 1011.5 hPa
Clouds: Clear
Visibility: 10 miles , 16 km
2018/01/20 06:55 KIKK 200655Z AUTO 22012G16KT 10SM CLR A2987 RMK AO2
 
KGYY - Gary Regional, Indiana, USA
Distance from station: E 38mi, 62km
Updated: 01/20/2018 12:55am
Clear
Clear
 Wind from SSW
Wind: SSW 12 mph , 19 km/h, Gust: 21 mph , 33 km/h
Temperature: 37°F , 3°C
Wind Chill: 29°F , -2°C
Dew Point: 27°F , -3°C
Humidity: 65%
Barometer: 29.82 inHg , 1009.8 hPa
Clouds: Clear
Visibility: 10 miles , 16 km
2018/01/20 06:55 KGYY 200655Z AUTO 21010G18KT 10SM CLR 03/M03 A2982 RMK AO2 T00341028
KPWK - Palwaukee, Illinois, USA
Distance from station: NNE 40mi, 65km
Updated: 01/20/2018 12:52am
Clear
Clear
 Wind from SW
Wind: SW 9 mph , 15 km/h
Temperature: 39°F , 4°C
Wind Chill: 33°F , 1°C
Dew Point: 28°F , -2°C
Humidity: 65%
Barometer: 29.79 inHg , 1008.8 hPa
Clouds: Clear
Visibility: 10 miles , 16 km
2018/01/20 06:52 KPWK 200652Z AUTO 22008KT 10SM CLR 04/M02 A2979 RMK AO2 SLP091 T00391022